sensor_id;sensor_type;location;lat;lon;timestamp;pressure;altitude;pressure_sealevel;temperature;humidity
75221;BME280;63802;53.232;6.570;2023-04-19T00:02:21;103172.16;;;7.48;78.85
75221;BME280;63802;53.232;6.570;2023-04-19T00:04:48;103164.78;;;7.53;79.07
75221;BME280;63802;53.232;6.570;2023-04-19T00:07:13;103170.22;;;7.53;78.35
75221;BME280;63802;53.232;6.570;2023-04-19T00:09:38;103170.22;;;7.53;78.09
75221;BME280;63802;53.232;6.570;2023-04-19T00:12:04;103163.72;;;7.49;77.47
75221;BME280;63802;53.232;6.570;2023-04-19T00:14:30;103169.97;;;7.50;77.47
75221;BME280;63802;53.232;6.570;2023-04-19T00:16:55;103169.16;;;7.49;77.33
75221;BME280;63802;53.232;6.570;2023-04-19T00:19:21;103175.69;;;7.48;77.05
75221;BME280;63802;53.232;6.570;2023-04-19T00:21:47;103167.31;;;7.39;76.91
75221;BME280;63802;53.232;6.570;2023-04-19T00:24:13;103173.53;;;7.45;76.73
75221;BME280;63802;53.232;6.570;2023-04-19T00:26:38;103161.84;;;7.44;77.20
75221;BME280;63802;53.232;6.570;2023-04-19T00:29:03;103181.16;;;7.43;77.30
75221;BME280;63802;53.232;6.570;2023-04-19T00:31:29;103182.53;;;7.40;77.80
75221;BME280;63802;53.232;6.570;2023-04-19T00:33:55;103173.88;;;7.38;77.55
75221;BME280;63802;53.232;6.570;2023-04-19T00:36:22;103173.28;;;7.41;77.56
75221;BME280;63802;53.232;6.570;2023-04-19T00:38:50;103179.56;;;7.37;77.82
75221;BME280;63802;53.232;6.570;2023-04-19T00:41:15;103186.63;;;7.38;77.70
75221;BME280;63802;53.232;6.570;2023-04-19T00:43:41;103186.59;;;7.43;77.39
75221;BME280;63802;53.232;6.570;2023-04-19T00:46:06;103186.94;;;7.36;77.26
75221;BME280;63802;53.232;6.570;2023-04-19T00:48:33;103185.00;;;7.37;77.39
75221;BME280;63802;53.232;6.570;2023-04-19T00:51:02;103178.00;;;7.31;77.55
75221;BME280;63802;53.232;6.570;2023-04-19T00:53:28;103179.59;;;7.32;77.48
75221;BME280;63802;53.232;6.570;2023-04-19T00:55:56;103182.94;;;7.24;77.48
75221;BME280;63802;53.232;6.570;2023-04-19T00:58:24;103188.38;;;7.24;78.17
75221;BME280;63802;53.232;6.570;2023-04-19T01:00:49;103186.22;;;7.16;78.24
75221;BME280;63802;53.232;6.570;2023-04-19T01:03:15;103173.81;;;7.05;78.39
75221;BME280;63802;53.232;6.570;2023-04-19T01:05:41;103183.59;;;7.01;78.93
75221;BME280;63802;53.232;6.570;2023-04-19T01:08:06;103182.03;;;6.90;79.82
75221;BME280;63802;53.232;6.570;2023-04-19T01:10:32;103187.47;;;6.90;79.85
75221;BME280;63802;53.232;6.570;2023-04-19T01:12:58;103189.41;;;6.84;80.31
75221;BME280;63802;53.232;6.570;2023-04-19T01:15:23;103187.53;;;6.80;81.13
75221;BME280;63802;53.232;6.570;2023-04-19T01:17:49;103180.50;;;6.73;81.40
75221;BME280;63802;53.232;6.570;2023-04-19T01:20:15;103177.84;;;6.63;81.76
75221;BME280;63802;53.232;6.570;2023-04-19T01:22:40;103177.56;;;6.60;82.38
75221;BME280;63802;53.232;6.570;2023-04-19T01:25:06;103184.41;;;6.52;82.79
75221;BME280;63802;53.232;6.570;2023-04-19T01:27:32;103190.88;;;6.56;82.97
75221;BME280;63802;53.232;6.570;2023-04-19T01:29:58;103189.56;;;6.49;82.97
75221;BME280;63802;53.232;6.570;2023-04-19T01:32:23;103195.81;;;6.44;83.32
75221;BME280;63802;53.232;6.570;2023-04-19T01:34:51;103198.00;;;6.42;83.57
75221;BME280;63802;53.232;6.570;2023-04-19T01:37:17;103186.63;;;6.35;83.53
75221;BME280;63802;53.232;6.570;2023-04-19T01:39:42;103188.28;;;6.26;83.99
75221;BME280;63802;53.232;6.570;2023-04-19T01:42:08;103192.06;;;6.25;84.04
75221;BME280;63802;53.232;6.570;2023-04-19T01:44:33;103182.03;;;6.26;84.32
75221;BME280;63802;53.232;6.570;2023-04-19T01:46:59;103194.78;;;6.20;84.22
75221;BME280;63802;53.232;6.570;2023-04-19T01:49:24;103188.84;;;6.18;84.54
75221;BME280;63802;53.232;6.570;2023-04-19T01:51:50;103194.53;;;6.12;84.39
75221;BME280;63802;53.232;6.570;2023-04-19T01:54:15;103188.31;;;6.11;84.05
75221;BME280;63802;53.232;6.570;2023-04-19T01:56:40;103197.50;;;6.15;84.09
75221;BME280;63802;53.232;6.570;2023-04-19T01:59:06;103190.72;;;6.13;83.84
75221;BME280;63802;53.232;6.570;2023-04-19T02:01:31;103194.25;;;6.13;83.52
75221;BME280;63802;53.232;6.570;2023-04-19T02:03:57;103199.97;;;6.06;83.29
75221;BME280;63802;53.232;6.570;2023-04-19T02:06:22;103189.97;;;5.97;83.06
75221;BME280;63802;53.232;6.570;2023-04-19T02:08:47;103193.22;;;5.89;82.93
75221;BME280;63802;53.232;6.570;2023-04-19T02:11:13;103189.97;;;5.87;82.28
75221;BME280;63802;53.232;6.570;2023-04-19T02:13:39;103195.88;;;5.84;82.08
75221;BME280;63802;53.232;6.570;2023-04-19T02:16:06;103194.28;;;5.83;81.96
75221;BME280;63802;53.232;6.570;2023-04-19T02:18:33;103190.22;;;5.80;81.17
75221;BME280;63802;53.232;6.570;2023-04-19T02:21:03;103191.84;;;5.86;80.49
75221;BME280;63802;53.232;6.570;2023-04-19T02:23:30;103193.44;;;6.02;79.26
75221;BME280;63802;53.232;6.570;2023-04-19T02:25:55;103186.13;;;6.08;78.19
75221;BME280;63802;53.232;6.570;2023-04-19T02:28:20;103192.63;;;6.12;77.31
75221;BME280;63802;53.232;6.570;2023-04-19T02:30:46;103189.13;;;6.06;76.31
75221;BME280;63802;53.232;6.570;2023-04-19T02:33:11;103189.13;;;6.12;74.81
75221;BME280;63802;53.232;6.570;2023-04-19T02:35:37;103191.78;;;6.22;73.67
75221;BME280;63802;53.232;6.570;2023-04-19T02:38:03;103198.03;;;6.22;72.74
75221;BME280;63802;53.232;6.570;2023-04-19T02:40:29;103187.72;;;6.19;72.18
75221;BME280;63802;53.232;6.570;2023-04-19T02:42:54;103198.03;;;6.22;71.60
75221;BME280;63802;53.232;6.570;2023-04-19T02:45:20;103191.53;;;6.18;71.23
75221;BME280;63802;53.232;6.570;2023-04-19T02:47:46;103190.47;;;6.14;70.83
75221;BME280;63802;53.232;6.570;2023-04-19T02:50:12;103200.22;;;6.15;70.81
75221;BME280;63802;53.232;6.570;2023-04-19T02:52:38;103195.34;;;6.12;70.82
75221;BME280;63802;53.232;6.570;2023-04-19T02:55:05;103197.50;;;6.05;70.36
75221;BME280;63802;53.232;6.570;2023-04-19T02:57:30;103203.22;;;6.03;70.28
75221;BME280;63802;53.232;6.570;2023-04-19T02:59:55;103202.97;;;5.95;70.40
75221;BME280;63802;53.232;6.570;2023-04-19T03:02:21;103191.56;;;5.93;70.47
75221;BME280;63802;53.232;6.570;2023-04-19T03:04:46;103201.88;;;5.96;69.78
75221;BME280;63802;53.232;6.570;2023-04-19T03:07:12;103200.81;;;5.92;69.77
75221;BME280;63802;53.232;6.570;2023-04-19T03:09:37;103204.03;;;5.94;69.62
75221;BME280;63802;53.232;6.570;2023-04-19T03:12:04;103202.41;;;5.88;70.14
75221;BME280;63802;53.232;6.570;2023-04-19T03:14:29;103194.28;;;5.73;69.68
75221;BME280;63802;53.232;6.570;2023-04-19T03:16:55;103201.31;;;5.69;70.04
75221;BME280;63802;53.232;6.570;2023-04-19T03:19:20;103194.28;;;5.58;70.60
75221;BME280;63802;53.232;6.570;2023-04-19T03:21:46;103199.69;;;5.53;70.88
75221;BME280;63802;53.232;6.570;2023-04-19T03:24:11;103193.44;;;5.52;70.83
75221;BME280;63802;53.232;6.570;2023-04-19T03:26:36;103195.91;;;5.54;70.57
75221;BME280;63802;53.232;6.570;2023-04-19T03:29:02;103193.72;;;5.46;70.89
75221;BME280;63802;53.232;6.570;2023-04-19T03:31:27;103193.19;;;5.43;70.51
75221;BME280;63802;53.232;6.570;2023-04-19T03:33:53;103191.00;;;5.40;70.84
75221;BME280;63802;53.232;6.570;2023-04-19T03:36:18;103186.69;;;5.34;71.25
75221;BME280;63802;53.232;6.570;2023-04-19T03:38:44;103187.22;;;5.31;71.41
75221;BME280;63802;53.232;6.570;2023-04-19T03:41:24;103190.22;;;5.35;71.44
75221;BME280;63802;53.232;6.570;2023-04-19T03:43:50;103196.41;;;5.30;71.21
75221;BME280;63802;53.232;6.570;2023-04-19T03:46:16;103192.06;;;5.24;71.78
75221;BME280;63802;53.232;6.570;2023-04-19T03:48:41;103190.97;;;5.15;71.81
75221;BME280;63802;53.232;6.570;2023-04-19T03:51:07;103203.97;;;5.13;71.80
75221;BME280;63802;53.232;6.570;2023-04-19T03:53:32;103199.59;;;5.02;72.31
75221;BME280;63802;53.232;6.570;2023-04-19T03:55:57;103200.38;;;4.93;72.83
75221;BME280;63802;53.232;6.570;2023-04-19T03:58:23;103203.88;;;4.88;72.76
75221;BME280;63802;53.232;6.570;2023-04-19T04:00:48;103206.56;;;4.78;73.48
75221;BME280;63802;53.232;6.570;2023-04-19T04:03:14;103211.94;;;4.73;73.70
75221;BME280;63802;53.232;6.570;2023-04-19T04:05:40;103213.00;;;4.67;74.28
75221;BME280;63802;53.232;6.570;2023-04-19T04:08:05;103207.53;;;4.57;74.73
75221;BME280;63802;53.232;6.570;2023-04-19T04:10:31;103209.66;;;4.45;75.04
75221;BME280;63802;53.232;6.570;2023-04-19T04:12:56;103213.44;;;4.44;75.73
75221;BME280;63802;53.232;6.570;2023-04-19T04:15:22;103218.25;;;4.32;76.06
75221;BME280;63802;53.232;6.570;2023-04-19T04:17:47;103217.63;;;4.20;76.29
75221;BME280;63802;53.232;6.570;2023-04-19T04:20:12;103210.66;;;4.29;76.48
75221;BME280;63802;53.232;6.570;2023-04-19T04:22:42;103214.41;;;4.28;76.39
75221;BME280;63802;53.232;6.570;2023-04-19T04:25:11;103219.28;;;4.26;76.75
75221;BME280;63802;53.232;6.570;2023-04-19T04:27:37;103220.31;;;4.20;76.91
75221;BME280;63802;53.232;6.570;2023-04-19T04:30:05;103211.91;;;4.16;76.89
75221;BME280;63802;53.232;6.570;2023-04-19T04:32:31;103217.56;;;4.10;77.25
75221;BME280;63802;53.232;6.570;2023-04-19T04:35:06;103217.56;;;4.10;76.81
75221;BME280;63802;53.232;6.570;2023-04-19T04:37:35;103223.47;;;4.06;77.00
75221;BME280;63802;53.232;6.570;2023-04-19T04:40:01;103213.72;;;4.05;77.03
75221;BME280;63802;53.232;6.570;2023-04-19T04:42:29;103225.91;;;4.08;77.36
75221;BME280;63802;53.232;6.570;2023-04-19T04:44:55;103212.16;;;4.10;77.40
75221;BME280;63802;53.232;6.570;2023-04-19T04:47:22;103219.97;;;4.11;77.12
75221;BME280;63802;53.232;6.570;2023-04-19T04:49:47;103217.59;;;4.15;76.73
75221;BME280;63802;53.232;6.570;2023-04-19T04:52:12;103209.69;;;4.08;76.85
75221;BME280;63802;53.232;6.570;2023-04-19T04:54:38;103206.22;;;4.13;76.82
75221;BME280;63802;53.232;6.570;2023-04-19T04:57:03;103213.25;;;4.14;76.42
75221;BME280;63802;53.232;6.570;2023-04-19T04:59:29;103205.69;;;4.16;76.20
75221;BME280;63802;53.232;6.570;2023-04-19T05:01:54;103220.38;;;4.25;75.99
75221;BME280;63802;53.232;6.570;2023-04-19T05:04:20;103219.28;;;4.26;75.34
75221;BME280;63802;53.232;6.570;2023-04-19T05:06:45;103214.41;;;4.28;75.43
75221;BME280;63802;53.232;6.570;2023-04-19T05:09:10;103219.59;;;4.39;74.78
75221;BME280;63802;53.232;6.570;2023-04-19T05:11:36;103212.06;;;4.46;74.61
75221;BME280;63802;53.232;6.570;2023-04-19T05:14:02;103210.19;;;4.47;73.74
75221;BME280;63802;53.232;6.570;2023-04-19T05:16:27;103220.00;;;4.58;73.78
75221;BME280;63802;53.232;6.570;2023-04-19T05:18:53;103206.78;;;4.66;73.16
75221;BME280;63802;53.232;6.570;2023-04-19T05:21:18;103210.59;;;4.75;72.26
75221;BME280;63802;53.232;6.570;2023-04-19T05:23:44;103208.22;;;4.84;71.69
75221;BME280;63802;53.232;6.570;2023-04-19T05:26:09;103215.28;;;5.00;70.67
75221;BME280;63802;53.232;6.570;2023-04-19T05:28:40;103214.78;;;5.08;69.66
75221;BME280;63802;53.232;6.570;2023-04-19T05:31:10;103230.53;;;5.31;69.00
75221;BME280;63802;53.232;6.570;2023-04-19T05:33:35;103223.50;;;5.35;68.85
75221;BME280;63802;53.232;6.570;2023-04-19T05:36:01;103228.41;;;5.54;67.64
75221;BME280;63802;53.232;6.570;2023-04-19T05:38:26;103218.66;;;5.58;67.52
75221;BME280;63802;53.232;6.570;2023-04-19T05:40:52;103227.31;;;5.70;67.13
75221;BME280;63802;53.232;6.570;2023-04-19T05:43:17;103234.94;;;5.78;67.04
75221;BME280;63802;53.232;6.570;2023-04-19T05:45:42;103231.09;;;5.79;66.92
75221;BME280;63802;53.232;6.570;2023-04-19T05:48:08;103238.16;;;5.80;66.89
75221;BME280;63802;53.232;6.570;2023-04-19T05:50:34;103243.06;;;5.88;67.03
75221;BME280;63802;53.232;6.570;2023-04-19T05:53:00;103239.81;;;5.91;67.34
75221;BME280;63802;53.232;6.570;2023-04-19T05:55:26;103236.03;;;6.02;67.50
75221;BME280;63802;53.232;6.570;2023-04-19T05:57:51;103237.91;;;6.06;67.20
75221;BME280;63802;53.232;6.570;2023-04-19T06:00:16;103236.53;;;6.19;66.93
75221;BME280;63802;53.232;6.570;2023-04-19T06:02:43;103230.03;;;6.25;66.48
75221;BME280;63802;53.232;6.570;2023-04-19T06:05:09;103235.41;;;6.45;66.38
75221;BME280;63802;53.232;6.570;2023-04-19T06:07:35;103229.41;;;6.48;66.00
75221;BME280;63802;53.232;6.570;2023-04-19T06:10:00;103235.88;;;6.62;65.94
75221;BME280;63802;53.232;6.570;2023-04-19T06:12:26;103243.44;;;6.81;65.50
75221;BME280;63802;53.232;6.570;2023-04-19T06:14:51;103241.75;;;6.90;64.71
75221;BME280;63802;53.232;6.570;2023-04-19T06:17:17;103239.50;;;7.12;64.52
75221;BME280;63802;53.232;6.570;2023-04-19T06:19:47;103247.56;;;7.27;63.57
75221;BME280;63802;53.232;6.570;2023-04-19T06:22:13;103246.41;;;7.38;62.91
75221;BME280;63802;53.232;6.570;2023-04-19T06:24:38;103244.69;;;7.47;61.61
75221;BME280;63802;53.232;6.570;2023-04-19T06:27:04;103244.94;;;7.56;61.72
75221;BME280;63802;53.232;6.570;2023-04-19T06:29:29;103239.34;;;7.71;61.79
75221;BME280;63802;53.232;6.570;2023-04-19T06:31:55;103235.47;;;7.82;61.60
75221;BME280;63802;53.232;6.570;2023-04-19T06:34:20;103237.78;;;7.98;61.20
75221;BME280;63802;53.232;6.570;2023-04-19T06:36:46;103236.19;;;8.21;61.80
75221;BME280;63802;53.232;6.570;2023-04-19T06:39:11;103240.09;;;8.44;60.79
75221;BME280;63802;53.232;6.570;2023-04-19T06:41:36;103241.47;;;8.41;60.69
75221;BME280;63802;53.232;6.570;2023-04-19T06:44:02;103228.28;;;8.53;59.73
75221;BME280;63802;53.232;6.570;2023-04-19T06:46:27;103232.78;;;8.63;58.57
75221;BME280;63802;53.232;6.570;2023-04-19T06:48:53;103236.00;;;8.89;57.93
75221;BME280;63802;53.232;6.570;2023-04-19T06:51:18;103228.59;;;8.94;56.51
75221;BME280;63802;53.232;6.570;2023-04-19T06:53:44;103236.09;;;9.02;55.49
75221;BME280;63802;53.232;6.570;2023-04-19T06:56:09;103231.25;;;8.99;54.46
75221;BME280;63802;53.232;6.570;2023-04-19T06:58:35;103232.41;;;8.93;54.00
75221;BME280;63802;53.232;6.570;2023-04-19T07:01:02;103226.78;;;9.27;53.43
75221;BME280;63802;53.232;6.570;2023-04-19T07:03:28;103225.38;;;9.29;52.53
75221;BME280;63802;53.232;6.570;2023-04-19T07:05:54;103230.59;;;9.44;52.84
75221;BME280;63802;53.232;6.570;2023-04-19T07:08:21;103220.72;;;9.49;53.07
75221;BME280;63802;53.232;6.570;2023-04-19T07:10:47;103232.34;;;9.73;53.09
75221;BME280;63802;53.232;6.570;2023-04-19T07:13:12;103223.41;;;9.86;54.47
75221;BME280;63802;53.232;6.570;2023-04-19T07:15:39;103228.22;;;10.07;54.76
75221;BME280;63802;53.232;6.570;2023-04-19T07:18:04;103228.16;;;10.26;54.41
75221;BME280;63802;53.232;6.570;2023-04-19T07:20:29;103220.22;;;10.11;53.90
75221;BME280;63802;53.232;6.570;2023-04-19T07:22:59;103218.75;;;10.32;53.05
75221;BME280;63802;53.232;6.570;2023-04-19T07:25:25;103217.69;;;10.60;52.86
75221;BME280;63802;53.232;6.570;2023-04-19T07:27:54;103220.69;;;10.32;50.93
75221;BME280;63802;53.232;6.570;2023-04-19T07:30:20;103216.66;;;10.29;50.60
75221;BME280;63802;53.232;6.570;2023-04-19T07:32:45;103208.88;;;10.36;51.19
75221;BME280;63802;53.232;6.570;2023-04-19T07:35:11;103213.69;;;10.26;50.73
75221;BME280;63802;53.232;6.570;2023-04-19T07:37:37;103208.78;;;10.41;50.44
75221;BME280;63802;53.232;6.570;2023-04-19T07:40:03;103208.94;;;10.58;49.77
75221;BME280;63802;53.232;6.570;2023-04-19T07:42:30;103220.28;;;10.79;50.01
75221;BME280;63802;53.232;6.570;2023-04-19T07:44:55;103224.13;;;10.92;48.99
75221;BME280;63802;53.232;6.570;2023-04-19T07:47:21;103219.88;;;10.86;47.93
75221;BME280;63802;53.232;6.570;2023-04-19T07:49:51;103216.63;;;10.84;47.94
75221;BME280;63802;53.232;6.570;2023-04-19T07:52:17;103222.06;;;11.11;48.47
75221;BME280;63802;53.232;6.570;2023-04-19T07:54:42;103213.13;;;11.19;48.11
75221;BME280;63802;53.232;6.570;2023-04-19T07:57:08;103220.44;;;11.45;47.78
75221;BME280;63802;53.232;6.570;2023-04-19T07:59:33;103223.38;;;11.49;47.28
75221;BME280;63802;53.232;6.570;2023-04-19T08:01:59;103214.53;;;11.30;46.01
75221;BME280;63802;53.232;6.570;2023-04-19T08:04:25;103206.22;;;11.79;46.44
75221;BME280;63802;53.232;6.570;2023-04-19T08:06:50;103205.72;;;11.99;45.02
75221;BME280;63802;53.232;6.570;2023-04-19T08:09:17;103200.59;;;12.06;45.40
75221;BME280;63802;53.232;6.570;2023-04-19T08:11:43;103202.19;;;12.07;44.56
75221;BME280;63802;53.232;6.570;2023-04-19T08:14:08;103207.94;;;11.97;44.76
75221;BME280;63802;53.232;6.570;2023-04-19T08:16:34;103206.59;;;11.86;45.62
75221;BME280;63802;53.232;6.570;2023-04-19T08:19:00;103210.19;;;11.95;46.34
75221;BME280;63802;53.232;6.570;2023-04-19T08:21:25;103206.91;;;12.16;46.57
75221;BME280;63802;53.232;6.570;2023-04-19T08:23:51;103214.22;;;11.98;47.50
75221;BME280;63802;53.232;6.570;2023-04-19T08:26:17;103207.38;;;12.09;47.40
75221;BME280;63802;53.232;6.570;2023-04-19T08:28:43;103197.06;;;11.84;46.36
75221;BME280;63802;53.232;6.570;2023-04-19T08:31:08;103196.72;;;11.77;46.76
75221;BME280;63802;53.232;6.570;2023-04-19T08:33:34;103194.47;;;11.79;46.70
75221;BME280;63802;53.232;6.570;2023-04-19T08:36:00;103190.63;;;11.80;47.03
75221;BME280;63802;53.232;6.570;2023-04-19T08:38:26;103194.19;;;11.80;46.69
75221;BME280;63802;53.232;6.570;2023-04-19T08:40:52;103191.03;;;11.51;47.20
75221;BME280;63802;53.232;6.570;2023-04-19T08:43:20;103193.41;;;11.44;47.65
75221;BME280;63802;53.232;6.570;2023-04-19T08:45:49;103193.03;;;11.37;47.46
75221;BME280;63802;53.232;6.570;2023-04-19T08:48:16;103185.69;;;11.46;47.39
75221;BME280;63802;53.232;6.570;2023-04-19T08:50:42;103192.22;;;11.36;47.93
75221;BME280;63802;53.232;6.570;2023-04-19T08:53:11;103186.81;;;11.45;47.51
75221;BME280;63802;53.232;6.570;2023-04-19T08:55:37;103187.94;;;11.44;47.84
75221;BME280;63802;53.232;6.570;2023-04-19T08:58:05;103185.81;;;11.63;48.14
75221;BME280;63802;53.232;6.570;2023-04-19T09:00:37;103184.81;;;11.59;48.61
75221;BME280;63802;53.232;6.570;2023-04-19T09:03:06;103177.16;;;11.48;47.51
75221;BME280;63802;53.232;6.570;2023-04-19T09:05:32;103191.78;;;11.65;48.12
75221;BME280;63802;53.232;6.570;2023-04-19T09:08:20;103180.75;;;11.57;47.62
75221;BME280;63802;53.232;6.570;2023-04-19T09:10:57;103174.16;;;11.49;46.94
75221;BME280;63802;53.232;6.570;2023-04-19T09:13:24;103176.47;;;11.64;47.13
75221;BME280;63802;53.232;6.570;2023-04-19T09:15:50;103173.75;;;11.86;47.97
75221;BME280;63802;53.232;6.570;2023-04-19T09:18:16;103167.66;;;11.89;46.97
75221;BME280;63802;53.232;6.570;2023-04-19T09:20:43;103180.22;;;11.90;46.38
75221;BME280;63802;53.232;6.570;2023-04-19T09:23:17;103170.53;;;11.84;46.02
75221;BME280;63802;53.232;6.570;2023-04-19T09:25:59;103162.84;;;11.95;45.73
75221;BME280;63802;53.232;6.570;2023-04-19T09:28:29;103166.03;;;11.88;45.71
75221;BME280;63802;53.232;6.570;2023-04-19T09:30:55;103157.16;;;12.14;46.10
75221;BME280;63802;53.232;6.570;2023-04-19T09:33:34;103159.09;;;12.13;44.92
75221;BME280;63802;53.232;6.570;2023-04-19T09:36:01;103162.72;;;12.00;45.00
75221;BME280;63802;53.232;6.570;2023-04-19T09:38:27;103150.78;;;11.96;44.37
75221;BME280;63802;53.232;6.570;2023-04-19T09:41:05;103153.41;;;12.01;44.25
75221;BME280;63802;53.232;6.570;2023-04-19T09:43:32;103157.53;;;11.90;44.18
75221;BME280;63802;53.232;6.570;2023-04-19T09:45:58;103149.09;;;12.08;44.06
75221;BME280;63802;53.232;6.570;2023-04-19T09:48:24;103148.81;;;12.19;43.55
75221;BME280;63802;53.232;6.570;2023-04-19T09:50:57;103138.50;;;12.24;43.26
75221;BME280;63802;53.232;6.570;2023-04-19T09:53:24;103117.78;;;12.40;42.04
75221;BME280;63802;53.232;6.570;2023-04-19T09:55:51;103149.03;;;12.48;41.68
75221;BME280;63802;53.232;6.570;2023-04-19T09:58:17;103139.34;;;12.33;41.56
75221;BME280;63802;53.232;6.570;2023-04-19T10:00:44;103136.63;;;12.42;41.55
75221;BME280;63802;53.232;6.570;2023-04-19T10:03:12;103128.44;;;12.50;41.99
75221;BME280;63802;53.232;6.570;2023-04-19T10:05:39;103129.28;;;12.68;41.18
75221;BME280;63802;53.232;6.570;2023-04-19T10:08:10;103118.66;;;12.92;41.19
75221;BME280;63802;53.232;6.570;2023-04-19T10:10:36;103131.25;;;12.93;40.55
75221;BME280;63802;53.232;6.570;2023-04-19T10:13:06;103133.69;;;13.12;41.19
75221;BME280;63802;53.232;6.570;2023-04-19T10:15:35;103124.47;;;13.33;41.35
75221;BME280;63802;53.232;6.570;2023-04-19T10:18:02;103120.13;;;13.41;41.23
75221;BME280;63802;53.232;6.570;2023-04-19T10:20:36;103117.19;;;13.46;40.33
75221;BME280;63802;53.232;6.570;2023-04-19T10:23:06;103107.75;;;13.73;40.40
75221;BME280;63802;53.232;6.570;2023-04-19T10:25:35;103103.34;;;14.27;40.22
75221;BME280;63802;53.232;6.570;2023-04-19T10:28:01;103111.34;;;14.40;40.09
75221;BME280;63802;53.232;6.570;2023-04-19T10:30:29;103104.81;;;14.24;40.18
75221;BME280;63802;53.232;6.570;2023-04-19T10:32:57;103102.63;;;14.67;39.23
75221;BME280;63802;53.232;6.570;2023-04-19T10:35:27;103109.63;;;15.18;38.66
75221;BME280;63802;53.232;6.570;2023-04-19T10:38:03;103101.78;;;15.08;38.09
75221;BME280;63802;53.232;6.570;2023-04-19T10:43:24;103094.97;;;15.26;37.92
75221;BME280;63802;53.232;6.570;2023-04-19T10:45:50;103092.22;;;15.26;37.80
75221;BME280;63802;53.232;6.570;2023-04-19T10:59:25;103077.19;;;15.24;38.06
75221;BME280;63802;53.232;6.570;2023-04-19T11:01:56;103076.53;;;15.48;37.97
75221;BME280;63802;53.232;6.570;2023-04-19T11:06:57;103071.81;;;15.60;37.23
75221;BME280;63802;53.232;6.570;2023-04-19T11:12:18;103051.13;;;15.42;37.05
75221;BME280;63802;53.232;6.570;2023-04-19T11:14:45;103061.28;;;15.74;36.74
75221;BME280;63802;53.232;6.570;2023-04-19T11:17:16;103047.50;;;15.50;37.82
75221;BME280;63802;53.232;6.570;2023-04-19T11:19:58;103036.47;;;15.05;38.30
75221;BME280;63802;53.232;6.570;2023-04-19T11:22:28;103046.28;;;15.39;38.52
75221;BME280;63802;53.232;6.570;2023-04-19T11:24:54;103042.84;;;15.30;38.33
75221;BME280;63802;53.232;6.570;2023-04-19T11:27:20;103057.06;;;15.32;38.20
75221;BME280;63802;53.232;6.570;2023-04-19T11:29:46;103028.13;;;15.14;38.73
75221;BME280;63802;53.232;6.570;2023-04-19T11:32:12;103043.19;;;14.96;38.49
75221;BME280;63802;53.232;6.570;2023-04-19T11:34:41;103021.75;;;15.34;38.37
75221;BME280;63802;53.232;6.570;2023-04-19T11:37:08;103020.81;;;15.18;38.25
75221;BME280;63802;53.232;6.570;2023-04-19T11:39:44;103016.25;;;15.34;39.71
75221;BME280;63802;53.232;6.570;2023-04-19T11:42:17;103003.00;;;15.84;38.47
75221;BME280;63802;53.232;6.570;2023-04-19T11:44:48;103015.94;;;16.08;38.71
75221;BME280;63802;53.232;6.570;2023-04-19T11:47:14;103001.28;;;16.44;39.42
75221;BME280;63802;53.232;6.570;2023-04-19T11:49:40;103006.38;;;16.82;37.97
75221;BME280;63802;53.232;6.570;2023-04-19T11:52:05;103001.06;;;15.61;38.28
75221;BME280;63802;53.232;6.570;2023-04-19T11:54:32;102992.22;;;15.79;38.71
75221;BME280;63802;53.232;6.570;2023-04-19T11:57:01;102991.53;;;15.94;38.92
75221;BME280;63802;53.232;6.570;2023-04-19T11:59:28;102993.94;;;15.96;39.17
75221;BME280;63802;53.232;6.570;2023-04-19T12:01:55;102995.56;;;15.73;39.03
75221;BME280;63802;53.232;6.570;2023-04-19T12:04:21;102989.69;;;15.62;39.22
75221;BME280;63802;53.232;6.570;2023-04-19T12:06:55;102985.81;;;15.75;38.98
75221;BME280;63802;53.232;6.570;2023-04-19T12:09:22;102975.84;;;15.71;39.42
75221;BME280;63802;53.232;6.570;2023-04-19T12:11:47;102979.41;;;15.83;39.73
75221;BME280;63802;53.232;6.570;2023-04-19T12:14:15;102987.44;;;15.64;39.93
75221;BME280;63802;53.232;6.570;2023-04-19T12:16:43;102980.41;;;15.91;39.93
75221;BME280;63802;53.232;6.570;2023-04-19T12:19:16;102966.31;;;15.68;39.76
75221;BME280;63802;53.232;6.570;2023-04-19T12:21:43;102972.03;;;15.87;40.37
75221;BME280;63802;53.232;6.570;2023-04-19T12:24:08;102969.75;;;15.77;40.36
75221;BME280;63802;53.232;6.570;2023-04-19T12:26:35;102975.88;;;16.23;40.17
75221;BME280;63802;53.232;6.570;2023-04-19T12:29:04;102981.66;;;15.81;40.01
75221;BME280;63802;53.232;6.570;2023-04-19T12:31:30;102981.34;;;15.02;41.07
75221;BME280;63802;53.232;6.570;2023-04-19T12:33:59;102973.69;;;15.19;41.50
75221;BME280;63802;53.232;6.570;2023-04-19T12:36:24;102968.72;;;15.46;43.62
75221;BME280;63802;53.232;6.570;2023-04-19T12:38:50;102953.47;;;14.91;43.92
75221;BME280;63802;53.232;6.570;2023-04-19T12:41:15;102960.06;;;15.23;43.04
75221;BME280;63802;53.232;6.570;2023-04-19T12:43:41;102964.75;;;15.10;42.96
75221;BME280;63802;53.232;6.570;2023-04-19T12:46:06;102957.53;;;15.18;43.70
75221;BME280;63802;53.232;6.570;2023-04-19T12:48:31;102964.72;;;14.65;44.74
75221;BME280;63802;53.232;6.570;2023-04-19T12:50:57;102954.78;;;15.18;45.51
75221;BME280;63802;53.232;6.570;2023-04-19T12:53:22;102951.63;;;15.64;44.60
75221;BME280;63802;53.232;6.570;2023-04-19T12:55:49;102958.00;;;15.20;45.48
75221;BME280;63802;53.232;6.570;2023-04-19T12:58:17;102960.03;;;14.99;46.66
75221;BME280;63802;53.232;6.570;2023-04-19T13:00:45;102946.50;;;15.06;46.33
75221;BME280;63802;53.232;6.570;2023-04-19T13:03:10;102935.09;;;14.83;46.45
75221;BME280;63802;53.232;6.570;2023-04-19T13:05:37;102937.94;;;15.43;45.66
75221;BME280;63802;53.232;6.570;2023-04-19T13:08:02;102931.84;;;15.38;45.23
75221;BME280;63802;53.232;6.570;2023-04-19T13:10:28;102927.53;;;15.37;45.12
75221;BME280;63802;53.232;6.570;2023-04-19T13:12:53;102936.69;;;15.29;45.36